Time;durP1;ratioP1;P1;durP2;ratioP2;P2;SDS_P1;SDS_P2;PMS_P1;PMS_P2;Temp;Humidity;BMP_temperature;BMP_pressure;BME280_temperature;BME280_humidity;BME280_pressure;Samples;Min_cycle;Max_cycle;Signal;HPM_P1;HPM_P2
2023/10/05 00:03:06;;;;;;;;;;;;;;;-147.89;100.00;60788.38;4231803;28;20340;-62
2023/10/05 00:05:08;;;;;;;;;;;;;;;-147.89;100.00;60788.38;4232029;28;19992;-62
2023/10/05 00:07:11;;;;;;;;;;;;;;;-147.89;100.00;60788.38;4231798;28;19973;-62
2023/10/05 00:09:16;;;;;;;;;;;;;;;-147.89;100.00;60788.38;4232024;28;19928;-62
2023/10/05 00:11:36;;;;;;;;;;;;;;;-147.89;100.00;60788.38;4231819;28;19976;-61
2023/10/05 00:13:37;;;;;;;;;;;;;;;-147.89;100.00;60788.38;4221324;28;20015;-61
2023/10/05 00:15:39;;;;;;;;;;;;;;;-147.89;100.00;60788.38;4231849;28;19977;-61
2023/10/05 00:17:41;;;;;;;;;;;;;;;-147.89;100.00;60788.38;4231184;28;19955;-60
2023/10/05 00:19:43;;;;;;;;;;;;;;;-147.89;100.00;60788.38;4231688;28;19969;-62
2023/10/05 00:21:50;;;;;;;;;;;;;;;-147.89;100.00;60788.38;4231359;28;20294;-61
2023/10/05 00:23:57;;;;;;;;;;;;;;;-147.89;100.00;60788.38;4220729;28;19930;-61
2023/10/05 00:25:58;;;;;;;;;;;;;;;-147.89;100.00;60788.38;4231705;28;19955;-61
2023/10/05 00:28:04;;;;;;;;;;;;;;;-147.89;100.00;60788.38;4213289;28;19963;-61
2023/10/05 00:30:07;;;;;;;;;;;;;;;-147.89;100.00;60788.38;4231401;28;20034;-62
2023/10/05 00:32:14;;;;;;;;;;;;;;;-147.89;100.00;60788.38;4230963;28;20385;-61
2023/10/05 00:34:24;;;;;;;;;;;;;;;-147.89;100.00;60788.38;4231553;28;20344;-62
2023/10/05 00:36:32;;;;;;;;;;;;;;;-147.89;100.00;60788.38;4213361;28;19925;-61
2023/10/05 00:38:35;;;;;;;;;;;;;;;-147.89;100.00;60788.38;4231253;28;19932;-62
2023/10/05 00:40:39;;;;;;;;;;;;;;;-147.89;100.00;60788.38;4231478;28;19923;-62
2023/10/05 00:42:40;;;;;;;;;;;;;;;-147.89;100.00;60788.38;4231361;28;20348;-62
2023/10/05 00:44:43;;;;;;;;;;;;;;;-147.89;100.00;60788.38;4231344;28;19988;-61
2023/10/05 00:46:48;;;;;;;;;;;;;;;-147.89;100.00;60788.38;4231167;28;20374;-61
2023/10/05 00:49:04;;;;;;;;;;;;;;;-147.89;100.00;60788.38;4230960;28;19923;-62
2023/10/05 00:51:12;;;;;;;;;;;;;;;-147.89;100.00;60788.38;4214353;28;19924;-61
2023/10/05 00:53:15;;;;;;;;;;;;;;;-147.89;100.00;60788.38;4222678;28;19938;-61
2023/10/05 00:55:17;;;;;;;;;;;;;;;-147.89;100.00;60788.38;4231131;28;20381;-62
2023/10/05 00:57:24;;;;;;;;;;;;;;;-147.89;100.00;60788.38;4230184;28;20309;-61
2023/10/05 00:59:27;;;;;;;;;;;;;;;-147.89;100.00;60788.38;4212527;28;20377;-61
2023/10/05 01:01:35;;;;;;;;;;;;;;;-147.89;100.00;60788.38;4195970;28;19924;-61
2023/10/05 01:03:47;;;;;;;;;;;;;;;-147.89;100.00;60788.38;4230872;28;19924;-62
2023/10/05 01:06:01;;;;;;;;;;;;;;;-147.89;100.00;60788.38;4231042;28;20376;-61
2023/10/05 01:08:15;;;;;;;;;;;;;;;-147.89;100.00;60788.38;4230746;28;20412;-61
2023/10/05 01:12:41;;;;;;;;;;;;;;;-147.89;100.00;60788.38;4230832;28;19924;-61
2023/10/05 01:14:52;;;;;;;;;;;;;;;-147.89;100.00;60788.38;4230564;28;19928;-61
2023/10/05 01:16:55;;;;;;;;;;;;;;;-147.89;100.00;60788.38;4223904;28;19931;-62
2023/10/05 01:18:56;;;;;;;;;;;;;;;-147.89;100.00;60788.38;4230350;28;19924;-62
2023/10/05 01:21:01;;;;;;;;;;;;;;;-147.89;100.00;60788.38;4230766;28;20074;-61
2023/10/05 01:23:04;;;;;;;;;;;;;;;-147.89;100.00;60788.38;4230595;28;19977;-61
2023/10/05 01:25:08;;;;;;;;;;;;;;;-147.89;100.00;60788.38;4230256;28;20031;-61
2023/10/05 01:27:11;;;;;;;;;;;;;;;-147.89;100.00;60788.38;4230858;28;19978;-62
2023/10/05 01:29:12;;;;;;;;;;;;;;;-147.89;100.00;60788.38;4230512;28;19928;-61
2023/10/05 01:31:17;;;;;;;;;;;;;;;-147.89;100.00;60788.38;4230184;28;20019;-61
2023/10/05 01:33:19;;;;;;;;;;;;;;;-147.89;100.00;60788.38;4231027;28;20328;-62
2023/10/05 01:35:23;;;;;;;;;;;;;;;-147.89;100.00;60788.38;4230122;28;19924;-62
2023/10/05 01:37:26;;;;;;;;;;;;;;;-147.89;100.00;60788.38;4230378;28;20383;-62
2023/10/05 01:39:28;;;;;;;;;;;;;;;-147.89;100.00;60788.38;4230156;28;20014;-62
2023/10/05 01:41:30;;;;;;;;;;;;;;;-147.89;100.00;60788.38;4230659;28;20002;-62
2023/10/05 01:43:34;;;;;;;;;;;;;;;-147.89;100.00;60788.38;4212495;28;20018;-62
2023/10/05 01:45:38;;;;;;;;;;;;;;;-147.89;100.00;60788.38;4230057;28;19931;-62
2023/10/05 01:47:39;;;;;;;;;;;;;;;-147.89;100.00;60788.38;4230433;28;19930;-62
2023/10/05 01:49:41;;;;;;;;;;;;;;;-147.89;100.00;60788.38;4229975;28;20490;-62
2023/10/05 01:51:43;;;;;;;;;;;;;;;-147.89;100.00;60788.38;4212170;28;20361;-62
2023/10/05 01:53:45;;;;;;;;;;;;;;;-147.89;100.00;60788.38;4230369;28;20412;-62
2023/10/05 01:55:50;;;;;;;;;;;;;;;-147.89;100.00;60788.38;4230235;28;19945;-61
2023/10/05 01:57:53;;;;;;;;;;;;;;;-147.89;100.00;60788.38;4230255;28;20022;-62
2023/10/05 01:59:55;;;;;;;;;;;;;;;-147.89;100.00;60788.38;4230051;28;20015;-62
2023/10/05 02:01:57;;;;;;;;;;;;;;;-147.89;100.00;60788.38;4230098;28;19980;-62
2023/10/05 02:03:59;;;;;;;;;;;;;;;-147.89;100.00;60788.38;4230201;28;19992;-61
2023/10/05 02:06:11;;;;;;;;;;;;;;;-147.89;100.00;60788.38;4229967;28;19928;-60
2023/10/05 02:08:15;;;;;;;;;;;;;;;-147.89;100.00;60788.38;4230225;28;20014;-61
2023/10/05 02:10:20;;;;;;;;;;;;;;;-147.89;100.00;60788.38;4230078;28;19967;-62
2023/10/05 02:12:23;;;;;;;;;;;;;;;-147.89;100.00;60788.38;4230167;28;19931;-62
2023/10/05 02:14:24;;;;;;;;;;;;;;;-147.89;100.00;60788.38;4229922;28;19924;-63
2023/10/05 02:16:27;;;;;;;;;;;;;;;-147.89;100.00;60788.38;4229731;28;19967;-62
2023/10/05 02:18:32;;;;;;;;;;;;;;;-147.89;100.00;60788.38;4230013;28;19982;-60
2023/10/05 02:22:35;;;;;;;;;;;;;;;-147.89;100.00;60788.38;4230098;28;19998;-60
2023/10/05 02:24:39;;;;;;;;;;;;;;;-147.89;100.00;60788.38;4231978;28;20321;-60
2023/10/05 02:26:45;;;;;;;;;;;;;;;-147.89;100.00;60788.38;4233226;28;20006;-60
2023/10/05 02:28:46;;;;;;;;;;;;;;;-147.89;100.00;60788.38;4214942;28;20003;-61
2023/10/05 02:30:50;;;;;;;;;;;;;;;-147.89;100.00;60788.38;4233225;28;19966;-61
2023/10/05 02:32:51;;;;;;;;;;;;;;;-147.89;100.00;60788.38;4233294;28;20464;-61
2023/10/05 02:34:59;;;;;;;;;;;;;;;-147.89;100.00;60788.38;4233132;28;20018;-61
2023/10/05 02:37:04;;;;;;;;;;;;;;;-147.89;100.00;60788.38;4214977;28;20010;-60
2023/10/05 02:39:08;;;;;;;;;;;;;;;-147.89;100.00;60788.38;4233189;28;20363;-61
2023/10/05 02:41:10;;;;;;;;;;;;;;;-147.89;100.00;60788.38;4232965;28;20435;-61
2023/10/05 02:43:15;;;;;;;;;;;;;;;-147.89;100.00;60788.38;4232813;28;19985;-61
2023/10/05 02:45:20;;;;;;;;;;;;;;;-147.89;100.00;60788.38;4233137;28;19924;-60
2023/10/05 02:47:24;;;;;;;;;;;;;;;-147.89;100.00;60788.38;4233079;28;20014;-63
2023/10/05 02:49:28;;;;;;;;;;;;;;;-147.89;100.00;60788.38;4233393;28;19924;-60
2023/10/05 02:51:29;;;;;;;;;;;;;;;-147.89;100.00;60788.38;4232996;28;19923;-63
2023/10/05 02:53:41;;;;;;;;;;;;;;;-147.89;100.00;60788.38;4232909;28;19924;-61
2023/10/05 02:55:43;;;;;;;;;;;;;;;-147.89;100.00;60788.38;4233012;28;19924;-61
2023/10/05 02:57:45;;;;;;;;;;;;;;;-147.89;100.00;60788.38;4214175;28;20403;-61
2023/10/05 02:59:47;;;;;;;;;;;;;;;-147.89;100.00;60788.38;4232973;28;20026;-61
2023/10/05 03:01:49;;;;;;;;;;;;;;;-147.89;100.00;60788.38;4232830;28;19976;-62
2023/10/05 03:03:51;;;;;;;;;;;;;;;-147.89;100.00;60788.38;4232797;28;19981;-61
2023/10/05 03:05:53;;;;;;;;;;;;;;;-147.89;100.00;60788.38;4233119;28;19924;-62
2023/10/05 03:07:55;;;;;;;;;;;;;;;-147.89;100.00;60788.38;4232839;28;19935;-61
2023/10/05 03:09:59;;;;;;;;;;;;;;;-147.89;100.00;60788.38;4233132;28;19924;-62
2023/10/05 03:12:00;;;;;;;;;;;;;;;-147.89;100.00;60788.38;4232260;28;19934;-61
2023/10/05 03:14:02;;;;;;;;;;;;;;;-147.89;100.00;60788.38;4232804;28;19923;-60
2023/10/05 03:16:11;;;;;;;;;;;;;;;-147.89;100.00;60788.38;4232421;28;19931;-61
2023/10/05 03:18:15;;;;;;;;;;;;;;;-147.89;100.00;60788.38;4232380;28;19992;-62
2023/10/05 03:20:18;;;;;;;;;;;;;;;-147.89;100.00;60788.38;4232843;28;19990;-61
2023/10/05 03:22:24;;;;;;;;;;;;;;;-147.89;100.00;60788.38;4232464;28;19923;-61
2023/10/05 03:24:26;;;;;;;;;;;;;;;-147.89;100.00;60788.38;4232637;28;19977;-62
2023/10/05 03:26:33;;;;;;;;;;;;;;;-147.89;100.00;60788.38;4232094;28;19924;-61
2023/10/05 03:28:35;;;;;;;;;;;;;;;-147.89;100.00;60788.38;4232409;28;19924;-62
2023/10/05 03:30:37;;;;;;;;;;;;;;;-147.89;100.00;60788.38;4232590;28;20297;-62
2023/10/05 03:32:40;;;;;;;;;;;;;;;-147.89;100.00;60788.38;4232382;28;19962;-63
2023/10/05 03:34:53;;;;;;;;;;;;;;;-147.89;100.00;60788.38;4228693;28;20439;-63
2023/10/05 03:36:55;;;;;;;;;;;;;;;-147.89;100.00;60788.38;4232515;28;19924;-63
2023/10/05 03:39:06;;;;;;;;;;;;;;;-147.89;100.00;60788.38;4232022;28;19928;-62
2023/10/05 03:41:15;;;;;;;;;;;;;;;-147.89;100.00;60788.38;4231926;28;19924;-63
2023/10/05 03:43:18;;;;;;;;;;;;;;;-147.89;100.00;60788.38;4232357;28;19970;-63
2023/10/05 03:45:22;;;;;;;;;;;;;;;-147.89;100.00;60788.38;4231908;28;19946;-62
2023/10/05 03:47:25;;;;;;;;;;;;;;;-147.89;100.00;60788.38;4232352;28;19931;-62
2023/10/05 03:49:32;;;;;;;;;;;;;;;-147.89;100.00;60788.38;4232322;28;19928;-62
2023/10/05 03:51:37;;;;;;;;;;;;;;;-147.89;100.00;60788.38;4232251;28;19924;-62
2023/10/05 03:53:53;;;;;;;;;;;;;;;-147.89;100.00;60788.38;4232064;28;19946;-63
2023/10/05 03:55:55;;;;;;;;;;;;;;;-147.89;100.00;60788.38;4213549;28;19956;-63
2023/10/05 03:57:57;;;;;;;;;;;;;;;-147.89;100.00;60788.38;4232201;28;19924;-62
2023/10/05 04:00:15;;;;;;;;;;;;;;;-147.89;100.00;60788.38;4231753;28;20014;-62
2023/10/05 04:02:18;;;;;;;;;;;;;;;-147.89;100.00;60788.38;4232164;28;19984;-62
2023/10/05 04:04:22;;;;;;;;;;;;;;;-147.89;100.00;60788.38;4231735;28;20010;-63
2023/10/05 04:06:26;;;;;;;;;;;;;;;-147.89;100.00;60788.38;4231801;28;19924;-63
2023/10/05 04:08:28;;;;;;;;;;;;;;;-147.89;100.00;60788.38;4231932;28;20444;-63
2023/10/05 04:10:49;;;;;;;;;;;;;;;-147.89;100.00;60788.38;4231937;28;19934;-62
2023/10/05 04:12:51;;;;;;;;;;;;;;;-147.89;100.00;60788.38;4215102;28;20297;-62
2023/10/05 04:14:53;;;;;;;;;;;;;;;-147.89;100.00;60788.38;4227276;28;19993;-62
2023/10/05 04:16:58;;;;;;;;;;;;;;;-147.89;100.00;60788.38;4231761;28;19947;-62
2023/10/05 04:19:04;;;;;;;;;;;;;;;-147.89;100.00;60788.38;4231817;28;20361;-61
2023/10/05 04:21:06;;;;;;;;;;;;;;;-147.89;100.00;60788.38;4246995;27;19923;-62
2023/10/05 04:23:08;;;;;;;;;;;;;;;-147.89;100.00;60788.38;4231593;28;19924;-62
2023/10/05 04:25:09;;;;;;;;;;;;;;;-147.89;100.00;60788.38;4231126;28;20312;-62
2023/10/05 04:27:12;;;;;;;;;;;;;;;-147.89;100.00;60788.38;4231723;28;19931;-62
2023/10/05 04:29:20;;;;;;;;;;;;;;;-147.89;100.00;60788.38;4231804;28;20404;-62
2023/10/05 04:31:23;;;;;;;;;;;;;;;-147.89;100.00;60788.38;4231429;28;19930;-62
2023/10/05 04:33:29;;;;;;;;;;;;;;;-147.89;100.00;60788.38;4231458;28;20378;-62
2023/10/05 04:35:38;;;;;;;;;;;;;;;-147.89;100.00;60788.38;4231391;28;19923;-62
2023/10/05 04:37:40;;;;;;;;;;;;;;;-147.89;100.00;60788.38;4231421;28;19924;-62
2023/10/05 04:39:43;;;;;;;;;;;;;;;-147.89;100.00;60788.38;4213051;28;20415;-62
2023/10/05 04:41:49;;;;;;;;;;;;;;;-147.89;100.00;60788.38;4231147;28;19928;-62
2023/10/05 04:43:51;;;;;;;;;;;;;;;-147.89;100.00;60788.38;4214703;28;19931;-62
2023/10/05 04:45:53;;;;;;;;;;;;;;;-147.89;100.00;60788.38;4222056;28;19923;-61
2023/10/05 04:47:58;;;;;;;;;;;;;;;-147.89;100.00;60788.38;4212593;28;20340;-62
2023/10/05 04:50:01;;;;;;;;;;;;;;;-147.89;100.00;60788.38;4231268;28;19928;-62
2023/10/05 04:52:06;;;;;;;;;;;;;;;-147.89;100.00;60788.38;4230781;28;19923;-62
2023/10/05 04:54:11;;;;;;;;;;;;;;;-147.89;100.00;60788.38;4230559;28;19938;-62
2023/10/05 04:56:22;;;;;;;;;;;;;;;-147.89;100.00;60788.38;4230665;28;19924;-62
2023/10/05 04:58:31;;;;;;;;;;;;;;;-147.89;100.00;60788.38;4231135;28;19953;-62
2023/10/05 05:05:34;;;;;;;;;;;;;;;-147.89;100.00;60788.38;4231070;28;19951;-62
2023/10/05 05:07:36;;;;;;;;;;;;;;;-147.89;100.00;60788.38;4230516;28;19924;-61
2023/10/05 05:09:39;;;;;;;;;;;;;;;-147.89;100.00;60788.38;4230821;28;19935;-62
2023/10/05 05:11:41;;;;;;;;;;;;;;;-147.89;100.00;60788.38;4230687;28;19988;-61
2023/10/05 05:13:42;;;;;;;;;;;;;;;-147.89;100.00;60788.38;4230761;28;19938;-62
2023/10/05 05:15:45;;;;;;;;;;;;;;;-147.89;100.00;60788.38;4230745;28;20280;-62
2023/10/05 05:17:48;;;;;;;;;;;;;;;-147.89;100.00;60788.38;4230307;28;19959;-63
2023/10/05 05:19:53;;;;;;;;;;;;;;;-147.89;100.00;60788.38;4230901;28;19927;-61
2023/10/05 05:21:56;;;;;;;;;;;;;;;-147.89;100.00;60788.38;4230550;28;19924;-62
2023/10/05 05:23:58;;;;;;;;;;;;;;;-147.89;100.00;60788.38;4230578;28;19984;-62
2023/10/05 05:26:00;;;;;;;;;;;;;;;-147.89;100.00;60788.38;4230837;28;20365;-62
2023/10/05 05:28:05;;;;;;;;;;;;;;;-147.89;100.00;60788.38;4230382;28;19931;-62
2023/10/05 05:30:15;;;;;;;;;;;;;;;-147.89;100.00;60788.38;4230620;28;19924;-62
2023/10/05 05:32:19;;;;;;;;;;;;;;;-147.89;100.00;60788.38;4230498;28;19967;-62
2023/10/05 05:34:24;;;;;;;;;;;;;;;-147.89;100.00;60788.38;4230411;28;20022;-62
2023/10/05 05:36:27;;;;;;;;;;;;;;;-147.89;100.00;60788.38;4230772;28;19923;-62
2023/10/05 05:38:29;;;;;;;;;;;;;;;-147.89;100.00;60788.38;4230163;28;19927;-62
2023/10/05 05:40:34;;;;;;;;;;;;;;;-147.89;100.00;60788.38;4230691;28;19927;-62
2023/10/05 05:42:36;;;;;;;;;;;;;;;-147.89;100.00;60788.38;4230293;28;19930;-62
2023/10/05 05:44:37;;;;;;;;;;;;;;;-147.89;100.00;60788.38;4230430;28;19931;-63
2023/10/05 05:46:39;;;;;;;;;;;;;;;-147.89;100.00;60788.38;4230463;28;19927;-62
2023/10/05 05:48:44;;;;;;;;;;;;;;;-147.89;100.00;60788.38;4230100;28;19923;-62
2023/10/05 05:50:46;;;;;;;;;;;;;;;-147.89;100.00;60788.38;4230568;28;19959;-62
2023/10/05 05:52:47;;;;;;;;;;;;;;;-147.89;100.00;60788.38;4229820;28;19923;-62
2023/10/05 05:54:49;;;;;;;;;;;;;;;-147.89;100.00;60788.38;4230470;28;20346;-62
2023/10/05 05:56:54;;;;;;;;;;;;;;;-147.89;100.00;60788.38;4230658;28;19970;-62
2023/10/05 05:58:56;;;;;;;;;;;;;;;-147.89;100.00;60788.38;4229952;28;19967;-62
2023/10/05 06:00:58;;;;;;;;;;;;;;;-147.89;100.00;60788.38;4230262;28;19931;-62
2023/10/05 06:03:00;;;;;;;;;;;;;;;-147.89;100.00;60788.38;4230232;28;20030;-61
2023/10/05 06:05:07;;;;;;;;;;;;;;;-147.89;100.00;60788.38;4230202;28;19989;-62
2023/10/05 06:07:13;;;;;;;;;;;;;;;-147.89;100.00;60788.38;4229848;28;20022;-62
2023/10/05 06:09:19;;;;;;;;;;;;;;;-147.89;100.00;60788.38;4229904;28;19931;-61
2023/10/05 06:11:20;;;;;;;;;;;;;;;-147.89;100.00;60788.38;4230089;28;20015;-62
2023/10/05 06:13:22;;;;;;;;;;;;;;;-147.89;100.00;60788.38;4230181;28;20437;-61
2023/10/05 06:15:24;;;;;;;;;;;;;;;-147.89;100.00;60788.38;4228603;28;19924;-62
2023/10/05 06:17:26;;;;;;;;;;;;;;;-147.89;100.00;60788.38;4230447;28;19923;-62
2023/10/05 06:19:28;;;;;;;;;;;;;;;-147.89;100.00;60788.38;4229942;28;19931;-62
2023/10/05 06:21:29;;;;;;;;;;;;;;;-147.89;100.00;60788.38;4230069;28;20305;-62
2023/10/05 06:23:33;;;;;;;;;;;;;;;-147.89;100.00;60788.38;4229659;28;20425;-63
2023/10/05 06:25:34;;;;;;;;;;;;;;;-147.89;100.00;60788.38;4229798;28;20119;-62
2023/10/05 06:27:37;;;;;;;;;;;;;;;-147.89;100.00;60788.38;4230233;28;19946;-61
2023/10/05 06:29:38;;;;;;;;;;;;;;;-147.89;100.00;60788.38;4229752;28;19931;-62
2023/10/05 06:31:40;;;;;;;;;;;;;;;-147.89;100.00;60788.38;4229852;28;19931;-61
2023/10/05 06:33:43;;;;;;;;;;;;;;;-147.89;100.00;60788.38;4230138;28;20370;-61
2023/10/05 06:35:51;;;;;;;;;;;;;;;-147.89;100.00;60788.38;4229770;28;20035;-61
2023/10/05 06:37:52;;;;;;;;;;;;;;;-147.89;100.00;60788.38;4230235;28;20405;-62
2023/10/05 06:39:54;;;;;;;;;;;;;;;-147.89;100.00;60788.38;4211343;28;19939;-61
2023/10/05 06:41:57;;;;;;;;;;;;;;;-147.89;100.00;60788.38;4230018;28;20251;-61
2023/10/05 06:43:58;;;;;;;;;;;;;;;-147.89;100.00;60788.38;4229730;28;20018;-62
2023/10/05 06:46:09;;;;;;;;;;;;;;;-147.89;100.00;60788.38;4228609;28;20010;-62
2023/10/05 06:48:12;;;;;;;;;;;;;;;-147.89;100.00;60788.38;4230043;28;19947;-62
2023/10/05 06:50:13;;;;;;;;;;;;;;;-147.89;100.00;60788.38;4229381;28;19931;-62
2023/10/05 06:52:16;;;;;;;;;;;;;;;-147.89;100.00;60788.38;4229839;28;20022;-62
2023/10/05 06:54:18;;;;;;;;;;;;;;;-147.89;100.00;60788.38;4229955;28;19927;-62
2023/10/05 06:56:20;;;;;;;;;;;;;;;-147.89;100.00;60788.38;4229592;28;19928;-62
2023/10/05 06:58:24;;;;;;;;;;;;;;;-147.89;100.00;60788.38;4230087;28;20371;-62
2023/10/05 07:00:27;;;;;;;;;;;;;;;-147.89;100.00;60788.38;4229606;28;19984;-63
2023/10/05 07:02:28;;;;;;;;;;;;;;;-147.89;100.00;60788.38;4230133;28;19930;-62
2023/10/05 07:04:30;;;;;;;;;;;;;;;-147.89;100.00;60788.38;4229398;28;19939;-61
2023/10/05 07:06:32;;;;;;;;;;;;;;;-147.89;100.00;60788.38;4229556;28;19928;-61
2023/10/05 07:08:34;;;;;;;;;;;;;;;-147.89;100.00;60788.38;4229681;28;19928;-62
2023/10/05 07:10:35;;;;;;;;;;;;;;;-147.89;100.00;60788.38;4230889;28;20311;-61
2023/10/05 07:12:46;;;;;;;;;;;;;;;-147.89;100.00;60788.38;4233081;28;19968;-61
2023/10/05 07:14:49;;;;;;;;;;;;;;;-147.89;100.00;60788.38;4232885;28;20417;-62
2023/10/05 07:16:51;;;;;;;;;;;;;;;-147.89;100.00;60788.38;4232291;28;20330;-62
2023/10/05 07:18:52;;;;;;;;;;;;;;;-147.89;100.00;60788.38;4232441;28;19924;-61
2023/10/05 07:20:54;;;;;;;;;;;;;;;-147.89;100.00;60788.38;4232551;28;20010;-62
2023/10/05 07:22:55;;;;;;;;;;;;;;;-147.89;100.00;60788.38;4232484;28;19930;-62
2023/10/05 07:24:57;;;;;;;;;;;;;;;-147.89;100.00;60788.38;4232770;28;19930;-62
2023/10/05 07:26:59;;;;;;;;;;;;;;;-147.89;100.00;60788.38;4232698;28;19924;-62
2023/10/05 07:29:04;;;;;;;;;;;;;;;-147.89;100.00;60788.38;4231975;28;20284;-62
2023/10/05 07:31:24;;;;;;;;;;;;;;;-147.89;100.00;60788.38;4232129;28;19924;-62
2023/10/05 07:33:26;;;;;;;;;;;;;;;-147.89;100.00;60788.38;4232540;28;20378;-61
2023/10/05 07:35:28;;;;;;;;;;;;;;;-147.89;100.00;60788.38;4232735;28;19936;-62
2023/10/05 07:37:30;;;;;;;;;;;;;;;-147.89;100.00;60788.38;4214118;28;19928;-62
2023/10/05 07:39:32;;;;;;;;;;;;;;;-147.89;100.00;60788.38;4232411;28;19977;-62
2023/10/05 07:41:33;;;;;;;;;;;;;;;-147.89;100.00;60788.38;4232167;28;20299;-61
2023/10/05 07:43:35;;;;;;;;;;;;;;;-147.89;100.00;60788.38;4232444;28;19931;-61
2023/10/05 07:45:37;;;;;;;;;;;;;;;-147.89;100.00;60788.38;4232545;28;20442;-61
2023/10/05 07:47:43;;;;;;;;;;;;;;;-147.89;100.00;60788.38;4231692;28;20311;-61
2023/10/05 07:49:45;;;;;;;;;;;;;;;-147.89;100.00;60788.38;4232403;28;19928;-61
2023/10/05 07:51:46;;;;;;;;;;;;;;;-147.89;100.00;60788.38;4232132;28;19970;-61
2023/10/05 07:53:48;;;;;;;;;;;;;;;-147.89;100.00;60788.38;4232221;28;20014;-62
2023/10/05 07:55:49;;;;;;;;;;;;;;;-147.89;100.00;60788.38;4232060;28;19931;-61
2023/10/05 07:57:51;;;;;;;;;;;;;;;-147.89;100.00;60788.38;4231800;28;20385;-62
2023/10/05 07:59:54;;;;;;;;;;;;;;;-147.89;100.00;60788.38;4232276;28;19954;-61
2023/10/05 08:01:57;;;;;;;;;;;;;;;-147.89;100.00;60788.38;4231690;28;19923;-62
2023/10/05 08:03:59;;;;;;;;;;;;;;;-147.89;100.00;60788.38;4232073;28;20353;-62
2023/10/05 08:06:01;;;;;;;;;;;;;;;-147.89;100.00;60788.38;4231999;28;19931;-61
2023/10/05 08:08:04;;;;;;;;;;;;;;;-147.89;100.00;60788.38;4231750;28;19924;-62
2023/10/05 08:10:06;;;;;;;;;;;;;;;-147.89;100.00;60788.38;4231743;28;19955;-61
2023/10/05 08:12:09;;;;;;;;;;;;;;;-147.89;100.00;60788.38;4231490;28;19924;-61
2023/10/05 08:14:11;;;;;;;;;;;;;;;-147.89;100.00;60788.38;4231568;28;20290;-62
2023/10/05 08:16:13;;;;;;;;;;;;;;;-147.89;100.00;60788.38;4231488;28;19923;-62
2023/10/05 08:18:15;;;;;;;;;;;;;;;-147.89;100.00;60788.38;4231066;28;20282;-62
2023/10/05 08:20:20;;;;;;;;;;;;;;;-147.89;100.00;60788.38;4231649;28;20287;-63
2023/10/05 08:22:28;;;;;;;;;;;;;;;-147.89;100.00;60788.38;4230183;28;19924;-64
2023/10/05 08:24:31;;;;;;;;;;;;;;;-147.89;100.00;60788.38;4230324;28;20328;-62
2023/10/05 08:26:39;;;;;;;;;;;;;;;-147.89;100.00;60788.38;4213914;28;19981;-62
2023/10/05 08:28:41;;;;;;;;;;;;;;;-147.89;100.00;60788.38;4230052;28;20369;-64
2023/10/05 08:30:45;;;;;;;;;;;;;;;-147.89;100.00;60788.38;4231232;28;20347;-64
2023/10/05 08:32:48;;;;;;;;;;;;;;;-147.89;100.00;60788.38;4230049;28;19930;-65
2023/10/05 08:34:50;;;;;;;;;;;;;;;-147.89;100.00;60788.38;4231379;28;20536;-65
2023/10/05 08:36:55;;;;;;;;;;;;;;;-147.89;100.00;60788.38;4231105;28;20492;-65
2023/10/05 08:38:57;;;;;;;;;;;;;;;-147.89;100.00;60788.38;4230486;28;19928;-66
2023/10/05 08:41:06;;;;;;;;;;;;;;;-147.89;100.00;60788.38;4212373;28;19928;-65
2023/10/05 08:43:12;;;;;;;;;;;;;;;-147.89;100.00;60788.38;4246833;27;19959;-67
2023/10/05 08:45:13;;;;;;;;;;;;;;;-147.89;100.00;60788.38;4230509;28;20389;-67
2023/10/05 08:47:15;;;;;;;;;;;;;;;-147.89;100.00;60788.38;4231125;28;20002;-66
2023/10/05 08:49:17;;;;;;;;;;;;;;;-147.89;100.00;60788.38;4230653;28;19934;-67
2023/10/05 08:51:22;;;;;;;;;;;;;;;-147.89;100.00;60788.38;4231219;28;20445;-66
2023/10/05 08:53:24;;;;;;;;;;;;;;;-147.89;100.00;60788.38;4230960;28;20449;-67
2023/10/05 08:55:28;;;;;;;;;;;;;;;-147.89;100.00;60788.38;4231087;28;20312;-67
2023/10/05 08:57:30;;;;;;;;;;;;;;;-147.89;100.00;60788.38;4231160;28;19969;-67
2023/10/05 08:59:32;;;;;;;;;;;;;;;-147.89;100.00;60788.38;4230285;28;19924;-67
2023/10/05 09:01:34;;;;;;;;;;;;;;;-147.89;100.00;60788.38;4230766;28;19976;-66
2023/10/05 09:03:42;;;;;;;;;;;;;;;-147.89;100.00;60788.38;4230819;28;20368;-67
2023/10/05 09:06:02;;;;;;;;;;;;;;;-147.89;100.00;60788.38;4230500;28;20023;-66
2023/10/05 09:08:08;;;;;;;;;;;;;;;-147.89;100.00;60788.38;4231089;28;19954;-67
2023/10/05 09:10:24;;;;;;;;;;;;;;;-147.89;100.00;60788.38;4230552;28;19996;-66
2023/10/05 09:12:35;;;;;;;;;;;;;;;-147.89;100.00;60788.38;4230774;28;19931;-67
2023/10/05 09:14:40;;;;;;;;;;;;;;;-147.89;100.00;60788.38;4229996;28;19927;-65
2023/10/05 09:16:43;;;;;;;;;;;;;;;-147.89;100.00;60788.38;4230760;28;19936;-66
2023/10/05 09:18:51;;;;;;;;;;;;;;;-147.89;100.00;60788.38;4230846;28;20002;-67
2023/10/05 09:20:53;;;;;;;;;;;;;;;-147.89;100.00;60788.38;4230330;28;19931;-67
2023/10/05 09:22:55;;;;;;;;;;;;;;;-147.89;100.00;60788.38;4230530;28;19976;-65
2023/10/05 09:24:58;;;;;;;;;;;;;;;-147.89;100.00;60788.38;4230560;28;19924;-67
2023/10/05 09:27:12;;;;;;;;;;;;;;;-147.89;100.00;60788.38;4230833;28;19977;-66
2023/10/05 09:29:31;;;;;;;;;;;;;;;-147.89;100.00;60788.38;4230307;28;19954;-67
2023/10/05 09:31:34;;;;;;;;;;;;;;;-147.89;100.00;60788.38;4229495;28;20014;-67
2023/10/05 09:33:46;;;;;;;;;;;;;;;-147.89;100.00;60788.38;4230580;28;19956;-66
2023/10/05 09:35:47;;;;;;;;;;;;;;;-147.89;100.00;60788.38;4228950;28;19928;-66
2023/10/05 09:37:49;;;;;;;;;;;;;;;-147.89;100.00;60788.38;4230457;28;19930;-67
2023/10/05 09:39:55;;;;;;;;;;;;;;;-147.89;100.00;60788.38;4230362;28;19927;-66
2023/10/05 09:42:01;;;;;;;;;;;;;;;-147.89;100.00;60788.38;4230181;28;19979;-66
2023/10/05 09:44:07;;;;;;;;;;;;;;;-147.89;100.00;60788.38;4229935;28;19924;-67
2023/10/05 09:46:14;;;;;;;;;;;;;;;-147.89;100.00;60788.38;4230134;28;19946;-66
2023/10/05 09:48:19;;;;;;;;;;;;;;;-147.89;100.00;60788.38;4230377;28;20293;-67
2023/10/05 09:50:24;;;;;;;;;;;;;;;-147.89;100.00;60788.38;4230058;28;19924;-68
2023/10/05 09:52:34;;;;;;;;;;;;;;;-147.89;100.00;60788.38;4230135;28;19924;-66
2023/10/05 09:54:37;;;;;;;;;;;;;;;-147.89;100.00;60788.38;4230435;28;19928;-67
2023/10/05 09:56:42;;;;;;;;;;;;;;;-147.89;100.00;60788.38;4229966;28;19930;-67
2023/10/05 09:58:45;;;;;;;;;;;;;;;-147.89;100.00;60788.38;4229830;28;19966;-66
2023/10/05 10:00:49;;;;;;;;;;;;;;;-147.89;100.00;60788.38;4230306;28;19935;-66
2023/10/05 10:02:51;;;;;;;;;;;;;;;-147.89;100.00;60788.38;4230021;28;19924;-66
2023/10/05 10:04:53;;;;;;;;;;;;;;;-147.89;100.00;60788.38;4230315;28;20300;-66
2023/10/05 10:06:58;;;;;;;;;;;;;;;-147.89;100.00;60788.38;4229759;28;19954;-66
2023/10/05 10:09:09;;;;;;;;;;;;;;;-147.89;100.00;60788.38;4230122;28;20372;-65
2023/10/05 10:11:24;;;;;;;;;;;;;;;-147.89;100.00;60788.38;4230063;28;20358;-66
2023/10/05 10:13:27;;;;;;;;;;;;;;;-147.89;100.00;60788.38;4229993;28;20334;-66
2023/10/05 10:15:34;;;;;;;;;;;;;;;-147.89;100.00;60788.38;4229969;28;19924;-67
2023/10/05 10:17:36;;;;;;;;;;;;;;;-147.89;100.00;60788.38;4229945;28;19924;-66
2023/10/05 10:19:45;;;;;;;;;;;;;;;-147.89;100.00;60788.38;4230059;28;19977;-66
2023/10/05 10:21:49;;;;;;;;;;;;;;;-147.89;100.00;60788.38;4229639;28;20019;-66
2023/10/05 10:24:06;;;;;;;;;;;;;;;-147.89;100.00;60788.38;4219088;28;19932;-67
2023/10/05 10:26:18;;;;;;;;;;;;;;;-147.89;100.00;60788.38;4230057;28;19988;-66
2023/10/05 10:28:37;;;;;;;;;;;;;;;-147.89;100.00;60788.38;4229525;28;19956;-67
2023/10/05 10:30:43;;;;;;;;;;;;;;;-147.89;100.00;60788.38;4213110;28;19924;-66
2023/10/05 10:32:49;;;;;;;;;;;;;;;-147.89;100.00;60788.38;4223381;28;19923;-66
2023/10/05 10:34:52;;;;;;;;;;;;;;;-147.89;100.00;60788.38;4229919;28;19930;-66